createdAt,value
2023-02-14T02:00:50.130Z,55.98
2023-02-14T02:02:33.973Z,52.12
2023-02-14T02:03:41.746Z,52.17
2023-02-14T02:04:47.098Z,56.68
2023-02-14T02:05:53.965Z,53.77
2023-02-14T02:07:00.666Z,54.25
2023-02-14T02:08:03.169Z,53.07
2023-02-14T02:09:28.910Z,51.60
2023-02-14T02:10:31.297Z,52.25
2023-02-14T02:11:34.496Z,49.57
2023-02-14T02:12:38.259Z,51.50
2023-02-14T02:13:40.667Z,53.23
2023-02-14T02:14:43.672Z,52.70
2023-02-14T02:15:54.425Z,52.03
2023-02-14T02:17:06.448Z,53.72
2023-02-14T02:18:19.049Z,52.45
2023-02-14T02:19:33.490Z,50.82
2023-02-14T02:20:41.896Z,50.13
2023-02-14T02:22:21.809Z,51.58
2023-02-14T02:23:42.210Z,49.57
2023-02-14T02:24:50.241Z,48.28
2023-02-14T02:26:30.064Z,47.10
2023-02-14T02:27:53.632Z,46.27
2023-02-14T02:29:19.951Z,48.73
2023-02-14T02:30:43.870Z,46.83
2023-02-14T02:32:08.262Z,47.77
2023-02-14T02:33:13.281Z,50.53
2023-02-14T02:34:53.177Z,47.15
2023-02-14T02:36:09.085Z,48.52
2023-02-14T02:37:38.593Z,49.18
2023-02-14T02:39:08.314Z,48.48
2023-02-14T02:40:29.073Z,48.03
2023-02-14T02:41:46.813Z,50.68
2023-02-14T02:43:02.789Z,51.45
2023-02-14T02:44:16.919Z,50.88
2023-02-14T02:45:29.448Z,53.33
2023-02-14T02:46:49.101Z,55.57
2023-02-14T02:48:11.163Z,53.78
2023-02-14T02:50:08.795Z,54.57
2023-02-14T02:51:36.938Z,57.55
2023-02-14T02:53:07.328Z,58.73
2023-02-14T02:54:26.302Z,59.85
2023-02-14T02:55:53.194Z,60.13
2023-02-14T02:57:00.125Z,59.50
2023-02-14T02:58:03.366Z,57.80
2023-02-14T02:59:20.964Z,57.05
2023-02-14T03:00:25.170Z,51.40
2023-02-14T03:01:31.672Z,53.07
2023-02-14T03:03:00.189Z,54.30
2023-02-14T03:04:25.643Z,52.15
2023-02-14T03:05:29.433Z,53.25
2023-02-14T03:06:32.981Z,52.07
2023-02-14T03:07:37.536Z,54.82
2023-02-14T03:08:39.854Z,51.68
2023-02-14T03:09:42.258Z,53.20
2023-02-14T03:10:45.099Z,52.98
2023-02-14T03:12:25.850Z,51.57
2023-02-14T03:13:37.641Z,52.65
2023-02-14T03:14:55.646Z,53.25
2023-02-14T03:16:27.317Z,95.32
2023-02-14T03:17:36.920Z,58.60
2023-02-14T03:19:24.048Z,64.25
2023-02-14T03:20:41.817Z,108.93
2023-02-14T03:22:05.788Z,101.93
2023-02-14T03:23:30.030Z,98.48
2023-02-14T03:25:03.794Z,107.27
2023-02-14T03:26:19.046Z,107.78
2023-02-14T03:27:33.002Z,104.03
2023-02-14T03:29:05.324Z,91.32
2023-02-14T03:30:33.590Z,91.90
2023-02-14T03:31:56.102Z,90.97
2023-02-14T03:33:14.178Z,94.17
2023-02-14T03:34:35.546Z,102.57
2023-02-14T03:36:02.055Z,87.03
2023-02-14T03:37:20.236Z,89.08
2023-02-14T03:38:31.697Z,83.78
2023-02-14T03:39:45.873Z,82.17
2023-02-14T03:40:54.768Z,80.48
2023-02-14T03:42:06.353Z,82.28
2023-02-14T03:43:13.334Z,78.00
2023-02-14T03:44:21.520Z,80.83
2023-02-14T03:45:32.929Z,80.22
2023-02-14T03:46:44.666Z,80.18
2023-02-14T03:47:48.861Z,77.93
2023-02-14T03:48:54.172Z,79.33
2023-02-14T03:50:04.437Z,77.98
2023-02-14T03:51:09.685Z,76.43
2023-02-14T03:52:14.185Z,74.88
2023-02-14T03:53:21.846Z,71.97
2023-02-14T03:54:25.926Z,70.72
2023-02-14T03:55:54.536Z,72.72
2023-02-14T03:57:21.983Z,72.68
2023-02-14T03:58:32.860Z,69.92
2023-02-14T03:59:35.608Z,68.42
2023-02-14T04:00:41.273Z,68.78
2023-02-14T04:01:49.838Z,67.87
2023-02-14T04:02:56.384Z,67.57
2023-02-14T04:04:00.772Z,67.50
2023-02-14T04:05:15.567Z,66.70
2023-02-14T04:06:20.152Z,68.80
2023-02-14T04:07:23.897Z,68.08
2023-02-14T04:08:28.842Z,66.53
2023-02-14T04:09:31.207Z,68.25
2023-02-14T04:10:34.077Z,68.37
2023-02-14T04:11:38.614Z,68.70
2023-02-14T04:12:40.998Z,68.53
2023-02-14T04:13:43.360Z,66.42
2023-02-14T04:14:45.753Z,67.18
2023-02-14T04:15:48.172Z,71.20
2023-02-14T04:17:09.580Z,69.38
2023-02-14T04:18:30.353Z,68.38
2023-02-14T04:19:32.728Z,72.42
2023-02-14T04:20:35.453Z,71.25
2023-02-14T04:21:37.844Z,72.73
2023-02-14T04:22:40.203Z,79.55
2023-02-14T04:23:42.649Z,84.10
2023-02-14T04:24:45.081Z,73.62
2023-02-14T04:25:47.507Z,69.87
2023-02-14T04:27:10.168Z,70.25
2023-02-14T04:28:13.613Z,68.12
2023-02-14T04:29:16.019Z,70.70
2023-02-14T04:30:20.885Z,72.42
2023-02-14T04:31:23.399Z,73.48
2023-02-14T04:32:25.834Z,73.13
2023-02-14T04:33:28.298Z,73.18
2023-02-14T04:34:30.671Z,73.08
2023-02-14T04:35:33.053Z,72.37
2023-02-14T04:36:35.374Z,72.58
2023-02-14T04:37:37.912Z,77.17
2023-02-14T04:38:40.502Z,74.27
2023-02-14T04:39:42.856Z,73.28
2023-02-14T04:40:45.250Z,74.68
2023-02-14T04:41:47.583Z,82.03
2023-02-14T04:42:49.982Z,89.07
2023-02-14T04:43:52.314Z,93.93
2023-02-14T04:44:54.674Z,85.33
2023-02-14T04:45:57.133Z,71.58
2023-02-14T04:46:59.705Z,68.02
2023-02-14T04:48:02.034Z,69.83
2023-02-14T04:49:04.498Z,73.22
2023-02-14T04:50:07.620Z,73.90
2023-02-14T04:51:10.133Z,78.63
2023-02-14T04:52:13.288Z,80.78
2023-02-14T04:53:15.624Z,75.48
2023-02-14T04:54:18.009Z,77.17
2023-02-14T04:55:20.362Z,77.33
2023-02-14T04:56:22.757Z,75.08
2023-02-14T04:57:25.148Z,74.97
2023-02-14T04:58:27.573Z,79.02
2023-02-14T04:59:30.126Z,79.45
2023-02-14T05:00:32.512Z,78.88
2023-02-14T05:01:34.908Z,82.48
2023-02-14T05:02:37.396Z,84.57
2023-02-14T05:03:39.741Z,88.15
2023-02-14T05:04:42.175Z,85.95
2023-02-14T05:05:44.526Z,87.80
2023-02-14T05:06:47.073Z,82.32
2023-02-14T05:07:49.455Z,76.68
2023-02-14T05:08:51.795Z,73.67
2023-02-14T05:09:54.171Z,78.87
2023-02-14T05:10:56.687Z,82.32
2023-02-14T05:11:59.206Z,75.92
2023-02-14T05:13:02.024Z,74.07
2023-02-14T05:14:04.492Z,73.15
2023-02-14T05:15:07.103Z,69.48
2023-02-14T05:16:09.553Z,67.30
2023-02-14T05:17:11.985Z,67.43
2023-02-14T05:18:14.467Z,66.67
2023-02-14T05:19:16.840Z,67.73
2023-02-14T05:20:19.277Z,70.97
2023-02-14T05:21:24.071Z,72.12
2023-02-14T05:22:26.400Z,73.43
2023-02-14T05:23:28.763Z,69.92
2023-02-14T05:24:31.296Z,69.12
2023-02-14T05:25:33.640Z,69.50
2023-02-14T05:26:35.972Z,72.13
2023-02-14T05:27:38.377Z,67.67
2023-02-14T05:28:41.172Z,68.97
2023-02-14T05:29:43.577Z,69.02
2023-02-14T05:30:46.524Z,67.20
2023-02-14T05:31:49.033Z,70.38
2023-02-14T05:32:51.418Z,84.13
2023-02-14T05:33:53.799Z,75.20
2023-02-14T05:34:56.177Z,72.52
2023-02-14T05:36:00.298Z,67.38
2023-02-14T05:37:03.671Z,65.62
2023-02-14T05:38:06.100Z,67.10
2023-02-14T05:39:08.434Z,65.17
2023-02-14T05:40:13.518Z,66.80
2023-02-14T05:41:15.948Z,64.02
2023-02-14T05:42:18.344Z,62.47
2023-02-14T05:43:21.561Z,62.62
2023-02-14T05:44:23.986Z,62.88
2023-02-14T05:45:26.512Z,65.50
2023-02-14T05:46:28.931Z,66.53
2023-02-14T05:47:31.529Z,67.27
2023-02-14T05:48:34.209Z,65.95
2023-02-14T05:49:36.778Z,65.68
2023-02-14T05:50:39.324Z,64.67
2023-02-14T05:51:43.747Z,64.47
2023-02-14T05:52:46.086Z,69.83
2023-02-14T05:53:48.491Z,77.28
2023-02-14T05:54:51.125Z,80.40
2023-02-14T05:55:53.496Z,78.33
2023-02-14T05:56:56.488Z,78.87
2023-02-14T05:57:59.016Z,84.63
2023-02-14T05:59:01.409Z,89.17
2023-02-14T06:00:06.628Z,88.28
2023-02-14T06:01:09.129Z,91.67
2023-02-14T06:02:11.939Z,91.27
2023-02-14T06:03:14.296Z,89.95
2023-02-14T06:04:16.707Z,88.12
2023-02-14T06:05:20.271Z,88.65
2023-02-14T06:06:22.609Z,92.80
2023-02-14T06:07:25.224Z,82.47
2023-02-14T06:08:27.644Z,72.32
2023-02-14T06:09:30.066Z,69.37
2023-02-14T06:10:32.498Z,69.37
2023-02-14T06:11:34.954Z,66.80
2023-02-14T06:12:37.504Z,68.63
2023-02-14T06:13:41.595Z,68.22
2023-02-14T06:14:45.200Z,68.33
2023-02-14T06:15:47.630Z,67.67
2023-02-14T06:16:50.084Z,67.55
2023-02-14T06:17:54.508Z,66.62
2023-02-14T06:18:56.888Z,69.22
2023-02-14T06:19:59.235Z,67.78
2023-02-14T06:21:01.887Z,68.50
2023-02-14T06:22:04.922Z,67.57
2023-02-14T06:23:07.264Z,65.05
2023-02-14T06:24:09.718Z,66.72
2023-02-14T06:25:12.070Z,66.52
2023-02-14T06:26:14.445Z,65.23
2023-02-14T06:27:17.020Z,68.18
2023-02-14T06:28:19.370Z,66.48
2023-02-14T06:29:21.752Z,63.12
2023-02-14T06:30:24.711Z,66.20
2023-02-14T06:31:27.336Z,65.28
2023-02-14T06:32:29.740Z,67.50
2023-02-14T06:33:32.091Z,67.75
2023-02-14T06:34:34.590Z,67.05
2023-02-14T06:35:36.953Z,69.17
2023-02-14T06:36:39.276Z,68.63
2023-02-14T06:37:45.333Z,69.58
2023-02-14T06:38:48.688Z,70.02
2023-02-14T06:39:52.918Z,68.68
2023-02-14T06:40:55.488Z,71.47
2023-02-14T06:41:57.878Z,70.92
2023-02-14T06:43:00.426Z,71.37
2023-02-14T06:44:03.852Z,71.80
2023-02-14T06:45:10.101Z,90.10
2023-02-14T06:46:12.595Z,82.10
2023-02-14T06:47:15.217Z,81.12
2023-02-14T06:48:21.695Z,78.23
2023-02-14T06:49:24.666Z,85.83
2023-02-14T06:50:27.313Z,89.30
2023-02-14T06:51:34.306Z,93.33
2023-02-14T06:52:38.022Z,92.77
2023-02-14T06:53:44.926Z,94.28
2023-02-14T06:54:49.835Z,94.18
2023-02-14T06:55:52.308Z,93.50
2023-02-14T06:56:56.224Z,94.65
2023-02-14T06:58:01.755Z,93.20
2023-02-14T06:59:11.152Z,96.35
2023-02-14T07:00:16.752Z,97.18
2023-02-14T07:01:19.331Z,95.68
2023-02-14T07:02:24.697Z,94.15
2023-02-14T07:03:27.663Z,95.93
2023-02-14T07:04:31.362Z,95.52
2023-02-14T07:05:38.385Z,95.70
2023-02-14T07:06:40.892Z,97.93
2023-02-14T07:07:44.161Z,99.48
2023-02-14T07:08:48.591Z,95.78
2023-02-14T07:09:52.435Z,97.57
2023-02-14T07:10:58.737Z,99.20
2023-02-14T07:12:02.523Z,98.03
2023-02-14T07:13:05.598Z,99.03
2023-02-14T07:14:07.984Z,99.97
2023-02-14T07:15:12.411Z,99.15
2023-02-14T07:16:14.822Z,99.57
2023-02-14T07:17:17.420Z,100.72
2023-02-14T07:18:19.802Z,101.02
2023-02-14T07:19:22.204Z,100.07
2023-02-14T07:20:25.009Z,97.92
2023-02-14T07:21:27.407Z,99.10
2023-02-14T07:22:30.403Z,101.73
2023-02-14T07:23:33.148Z,98.85
2023-02-14T07:24:35.578Z,108.30
2023-02-14T07:25:38.410Z,116.18
2023-02-14T07:26:40.791Z,114.98
2023-02-14T07:27:43.741Z,120.28
2023-02-14T07:28:49.135Z,128.68
2023-02-14T07:29:51.735Z,116.80
2023-02-14T07:30:54.403Z,101.85
2023-02-14T07:31:57.074Z,105.63
2023-02-14T07:32:59.789Z,101.12
2023-02-14T07:34:02.255Z,85.68
2023-02-14T07:35:05.105Z,77.27
2023-02-14T07:36:08.826Z,74.48
2023-02-14T07:37:11.342Z,77.87
2023-02-14T07:38:13.780Z,76.10
2023-02-14T07:39:16.264Z,71.97
2023-02-14T07:40:20.133Z,73.73
2023-02-14T07:41:22.632Z,74.08
2023-02-14T07:42:25.056Z,73.20
2023-02-14T07:43:27.834Z,71.58
2023-02-14T07:44:30.356Z,82.18
2023-02-14T07:45:32.783Z,107.30
2023-02-14T07:46:35.349Z,106.03
2023-02-14T07:47:38.143Z,131.12
2023-02-14T07:48:40.657Z,136.08
2023-02-14T07:49:43.123Z,121.90
2023-02-14T07:50:45.636Z,80.00
2023-02-14T07:51:48.090Z,84.82
2023-02-14T07:52:50.663Z,91.55
2023-02-14T07:53:53.118Z,100.62
2023-02-14T07:54:57.425Z,106.52
2023-02-14T07:56:01.764Z,97.23
2023-02-14T07:57:07.218Z,69.58
2023-02-14T07:58:17.204Z,64.18
2023-02-14T07:59:25.955Z,58.68
2023-02-14T08:00:49.134Z,61.93
2023-02-14T08:01:51.885Z,63.57
2023-02-14T08:02:56.099Z,55.53
2023-02-14T08:03:59.416Z,55.75
2023-02-14T08:05:24.638Z,54.10
2023-02-14T08:07:23.117Z,52.47
2023-02-14T08:08:28.016Z,51.10
2023-02-14T08:09:30.571Z,51.23
2023-02-14T08:10:32.971Z,51.08
2023-02-14T08:12:04.891Z,50.70
2023-02-14T08:13:07.369Z,54.13
2023-02-14T08:14:09.767Z,53.20
2023-02-14T08:15:30.665Z,51.48
2023-02-14T08:16:34.765Z,49.08
2023-02-14T08:17:37.259Z,52.15
2023-02-14T08:18:41.597Z,49.18
2023-02-14T08:19:44.034Z,53.03
2023-02-14T08:20:49.859Z,50.08
2023-02-14T08:21:52.525Z,47.65
2023-02-14T08:22:54.995Z,48.40
2023-02-14T08:23:57.908Z,46.95
2023-02-14T08:25:00.271Z,46.45
2023-02-14T08:26:04.858Z,47.18
2023-02-14T08:27:07.406Z,45.88
2023-02-14T08:28:10.351Z,47.72
2023-02-14T08:29:13.370Z,47.20
2023-02-14T08:30:16.926Z,46.67
2023-02-14T08:31:36.083Z,46.88
2023-02-14T08:32:38.922Z,48.10
2023-02-14T08:33:43.434Z,49.13
2023-02-14T08:34:45.935Z,50.82
2023-02-14T08:35:48.817Z,49.70
2023-02-14T08:36:52.159Z,51.15
2023-02-14T08:37:55.087Z,50.33
2023-02-14T08:38:57.937Z,52.55
2023-02-14T08:40:00.465Z,53.27
2023-02-14T08:41:44.743Z,51.55
2023-02-14T08:42:47.703Z,47.37
2023-02-14T08:43:50.526Z,48.17
2023-02-14T08:45:10.767Z,51.78
2023-02-14T08:46:15.146Z,50.43
2023-02-14T08:47:23.555Z,51.12
2023-02-14T08:48:37.374Z,53.87
2023-02-14T08:49:42.670Z,54.60
2023-02-14T08:50:52.221Z,57.33
2023-02-14T08:52:03.094Z,53.20
2023-02-14T08:53:13.802Z,57.40
2023-02-14T08:54:26.985Z,65.73
2023-02-14T08:56:27.007Z,66.30
2023-02-14T08:57:38.824Z,57.68
2023-02-14T08:59:01.033Z,60.52
2023-02-14T09:00:07.408Z,59.38
2023-02-14T09:01:11.996Z,55.58
2023-02-14T09:02:17.958Z,51.10
2023-02-14T09:03:35.178Z,51.43
2023-02-14T09:04:39.788Z,46.93
2023-02-14T09:05:43.132Z,45.85
2023-02-14T09:06:45.631Z,45.22
2023-02-14T09:07:47.978Z,45.88
2023-02-14T09:08:50.741Z,46.67
2023-02-14T09:09:53.114Z,45.33
2023-02-14T09:10:55.597Z,46.45
2023-02-14T09:11:58.120Z,45.32
2023-02-14T09:13:00.481Z,44.83
2023-02-14T09:14:03.065Z,45.17
2023-02-14T09:15:05.834Z,45.57
2023-02-14T09:16:10.768Z,46.23
2023-02-14T09:17:13.818Z,46.73
2023-02-14T09:18:16.476Z,45.48
2023-02-14T09:19:18.909Z,47.53
2023-02-14T09:20:21.429Z,46.55
2023-02-14T09:21:26.976Z,45.47
2023-02-14T09:22:29.464Z,46.92
2023-02-14T09:23:31.915Z,47.32
2023-02-14T09:24:36.640Z,49.95
2023-02-14T09:25:39.092Z,52.18
2023-02-14T09:26:42.386Z,50.90
2023-02-14T09:27:44.773Z,50.50
2023-02-14T09:28:47.920Z,49.28
2023-02-14T09:29:50.449Z,50.18
2023-02-14T09:30:54.465Z,49.60
2023-02-14T09:31:59.823Z,51.60
2023-02-14T09:33:05.397Z,50.90
2023-02-14T09:34:07.826Z,52.47
2023-02-14T09:35:29.138Z,52.30
2023-02-14T09:36:34.063Z,50.43
2023-02-14T09:37:41.560Z,50.55
2023-02-14T09:38:45.727Z,50.92
2023-02-14T09:40:03.154Z,50.83
2023-02-14T09:41:35.389Z,48.27
2023-02-14T09:43:06.747Z,47.13
2023-02-14T09:44:26.742Z,48.10
2023-02-14T09:45:31.477Z,47.32
2023-02-14T09:46:43.353Z,47.65
2023-02-14T09:47:55.912Z,47.87
2023-02-14T09:49:01.307Z,50.73
2023-02-14T09:50:18.730Z,48.00
2023-02-14T09:51:27.420Z,49.65
2023-02-14T09:52:32.700Z,50.67
2023-02-14T09:54:12.600Z,47.77
2023-02-14T09:55:18.246Z,47.17
2023-02-14T09:56:40.047Z,46.37
2023-02-14T09:58:08.397Z,45.43
2023-02-14T09:59:35.028Z,43.25
2023-02-14T10:00:46.834Z,43.82
2023-02-14T10:01:58.976Z,44.13
2023-02-14T10:03:25.808Z,44.02
2023-02-14T10:04:48.034Z,43.60
2023-02-14T10:06:28.137Z,44.22
2023-02-14T10:07:57.852Z,46.47
2023-02-14T10:09:32.662Z,45.50
2023-02-14T10:10:43.266Z,47.02
2023-02-14T10:11:47.723Z,47.35
2023-02-14T10:13:00.844Z,47.72
2023-02-14T10:14:17.758Z,46.92
2023-02-14T10:15:34.658Z,52.07
2023-02-14T10:16:44.364Z,50.23
2023-02-14T10:17:52.910Z,47.87
2023-02-14T10:19:04.479Z,48.07
2023-02-14T10:20:20.051Z,48.23
2023-02-14T10:21:30.223Z,47.82
2023-02-14T10:22:42.915Z,47.80
2023-02-14T10:23:54.545Z,47.72
2023-02-14T10:25:08.660Z,47.42
2023-02-14T10:26:16.347Z,50.32
2023-02-14T10:27:42.384Z,47.82
2023-02-14T10:28:49.912Z,48.32
2023-02-14T10:29:52.287Z,49.03
2023-02-14T10:31:06.286Z,48.23
2023-02-14T10:32:14.848Z,49.73
2023-02-14T10:33:19.734Z,48.30
2023-02-14T10:34:46.339Z,47.82
2023-02-14T10:35:53.252Z,48.98
2023-02-14T10:37:27.993Z,50.25
2023-02-14T10:38:44.255Z,51.38
2023-02-14T10:40:00.743Z,49.43
2023-02-14T10:41:33.071Z,49.28
2023-02-14T10:42:55.261Z,48.27
2023-02-14T10:46:18.536Z,49.73
2023-02-14T10:49:43.110Z,48.90
2023-02-14T10:51:03.703Z,50.88
2023-02-14T10:52:29.250Z,47.72
2023-02-14T10:53:50.188Z,50.35
2023-02-14T10:54:58.573Z,55.10
2023-02-14T10:56:08.570Z,51.60
2023-02-14T10:57:33.039Z,49.75
2023-02-14T10:58:38.853Z,46.92
2023-02-14T11:00:02.753Z,48.33
2023-02-14T11:01:13.179Z,49.95
2023-02-14T11:02:18.174Z,53.45
2023-02-14T11:03:20.577Z,50.90
2023-02-14T11:04:26.440Z,50.17
2023-02-14T11:05:31.749Z,51.62
2023-02-14T11:06:34.567Z,51.08
2023-02-14T11:07:37.331Z,47.95
2023-02-14T11:08:42.347Z,52.50
2023-02-14T11:09:45.248Z,54.02
2023-02-14T11:10:48.478Z,50.08
2023-02-14T11:11:56.319Z,48.77
2023-02-14T11:12:58.833Z,48.97
2023-02-14T11:15:27.816Z,42.47
2023-02-14T11:16:36.703Z,49.93
2023-02-14T11:17:39.757Z,51.88
2023-02-14T11:18:42.466Z,48.82
2023-02-14T11:20:03.083Z,49.08
2023-02-14T11:21:10.963Z,52.37
2023-02-14T11:22:30.226Z,40.28
2023-02-14T11:23:35.986Z,38.78
2023-02-14T11:24:44.070Z,41.87
2023-02-14T11:25:55.147Z,40.58
2023-02-14T11:27:15.390Z,38.90
2023-02-14T11:28:24.105Z,37.43
2023-02-14T11:29:42.819Z,36.42
2023-02-14T11:30:56.992Z,36.92
2023-02-14T11:32:15.099Z,36.23
2023-02-14T11:33:30.708Z,38.47
2023-02-14T11:35:02.739Z,38.28
2023-02-14T11:36:13.803Z,36.57
2023-02-14T11:37:59.676Z,35.03
2023-02-14T11:39:23.705Z,35.75
2023-02-14T11:40:51.651Z,38.00
2023-02-14T11:41:59.967Z,39.10
2023-02-14T11:43:19.882Z,40.00
2023-02-14T11:44:30.645Z,37.73
2023-02-14T11:45:39.116Z,37.33
2023-02-14T11:46:52.810Z,39.13
2023-02-14T11:48:38.420Z,37.33
2023-02-14T11:54:07.610Z,38.28
2023-02-14T11:55:34.837Z,40.20
2023-02-14T11:57:14.050Z,40.28
2023-02-14T11:58:32.410Z,41.45
2023-02-14T11:59:51.638Z,41.52
2023-02-14T12:00:54.985Z,42.77
2023-02-14T12:02:02.900Z,40.92
2023-02-14T12:03:07.370Z,40.35
2023-02-14T12:04:18.954Z,41.85
2023-02-14T12:05:46.508Z,42.87
2023-02-14T12:06:49.601Z,43.73
2023-02-14T12:07:58.421Z,40.83
2023-02-14T12:09:25.790Z,41.50
2023-02-14T12:10:38.296Z,40.33
2023-02-14T12:11:41.414Z,40.17
2023-02-14T12:12:51.004Z,42.20
2023-02-14T12:13:56.151Z,39.77
2023-02-14T12:15:54.604Z,38.77
2023-02-14T12:17:11.979Z,38.80
2023-02-14T12:18:29.847Z,37.00
2023-02-14T12:19:54.445Z,35.55
2023-02-14T12:21:13.147Z,36.72
2023-02-14T12:22:20.957Z,38.32
2023-02-14T12:23:35.451Z,35.23
2023-02-14T12:25:00.366Z,37.72
2023-02-14T12:26:09.762Z,37.67
2023-02-14T12:27:12.287Z,38.93
2023-02-14T12:28:23.686Z,40.18
2023-02-14T12:29:42.152Z,39.33
2023-02-14T12:30:45.623Z,40.20
2023-02-14T12:31:58.928Z,38.82
2023-02-14T12:33:05.065Z,39.92
2023-02-14T12:34:11.312Z,39.13
2023-02-14T12:35:48.619Z,39.72
2023-02-14T12:37:29.518Z,37.08
2023-02-14T12:39:16.747Z,37.13
2023-02-14T12:40:21.543Z,36.02
2023-02-14T12:41:44.961Z,37.12
2023-02-14T12:44:07.371Z,35.92
2023-02-14T12:45:24.951Z,38.40
2023-02-14T12:46:40.652Z,35.80
2023-02-14T12:47:53.236Z,38.33
2023-02-14T12:49:28.913Z,39.47
2023-02-14T12:50:46.880Z,37.02
2023-02-14T12:52:00.228Z,38.92
2023-02-14T12:53:21.135Z,39.13
2023-02-14T12:54:44.308Z,38.57
2023-02-14T12:56:10.885Z,37.80
2023-02-14T12:57:43.863Z,37.98
2023-02-14T12:59:12.762Z,40.68
2023-02-14T13:01:29.204Z,41.05
2023-02-14T13:02:46.715Z,39.62
2023-02-14T13:04:13.741Z,39.60
2023-02-14T13:05:18.111Z,40.85
2023-02-14T13:07:10.735Z,40.45
2023-02-14T13:08:49.697Z,40.93
2023-02-14T13:10:32.752Z,40.52
2023-02-14T13:11:50.612Z,40.05
2023-02-14T13:13:04.505Z,40.67
2023-02-14T13:14:31.040Z,39.83
2023-02-14T13:15:53.157Z,40.63
2023-02-14T13:17:18.148Z,41.85
2023-02-14T13:18:48.881Z,41.60
2023-02-14T13:20:03.303Z,42.80
2023-02-14T13:21:13.159Z,41.92
2023-02-14T13:22:19.223Z,41.40
2023-02-14T13:23:35.662Z,40.48
2023-02-14T13:27:23.174Z,39.23
2023-02-14T13:29:50.630Z,40.75
2023-02-14T13:30:55.155Z,40.58
2023-02-14T13:32:01.974Z,40.83
2023-02-14T13:33:10.400Z,40.78
2023-02-14T13:34:28.240Z,40.33
2023-02-14T13:35:32.375Z,40.68
2023-02-14T13:36:36.515Z,41.28
2023-02-14T13:37:39.329Z,42.53
2023-02-14T13:38:48.689Z,42.40
2023-02-14T13:40:01.901Z,41.78
2023-02-14T13:41:05.575Z,42.65
2023-02-14T13:42:08.002Z,43.60
2023-02-14T13:43:10.411Z,42.03
2023-02-14T13:44:38.680Z,41.28
2023-02-14T13:45:41.101Z,42.12
2023-02-14T13:46:48.322Z,41.87
2023-02-14T13:48:03.641Z,41.82
2023-02-14T13:49:24.339Z,42.15
2023-02-14T13:50:27.348Z,40.20
2023-02-14T13:51:53.034Z,42.78
2023-02-14T13:52:55.867Z,41.02
2023-02-14T13:53:59.766Z,41.05
2023-02-14T13:55:07.842Z,41.95
2023-02-14T13:56:12.838Z,43.05
2023-02-14T13:57:36.564Z,41.15
2023-02-14T13:58:55.113Z,40.78
2023-02-14T14:00:19.100Z,41.32
2023-02-14T14:01:30.656Z,42.70
2023-02-14T14:02:44.290Z,43.22
2023-02-14T14:03:57.828Z,41.58
2023-02-14T14:05:03.108Z,41.78
2023-02-14T14:06:10.911Z,41.57
2023-02-14T14:07:13.554Z,41.98
2023-02-14T14:08:25.235Z,41.25
2023-02-14T14:09:43.344Z,40.53
2023-02-14T14:10:48.509Z,41.82
2023-02-14T14:11:51.518Z,40.23
2023-02-14T14:12:53.935Z,40.05
2023-02-14T14:14:01.879Z,40.10
2023-02-14T14:15:07.300Z,41.42
2023-02-14T14:16:27.709Z,41.48
2023-02-14T14:17:35.346Z,41.42
2023-02-14T14:18:43.392Z,39.65
2023-02-14T14:19:47.108Z,40.10
2023-02-14T14:20:49.677Z,40.55
2023-02-14T14:22:09.468Z,41.22
2023-02-14T14:23:45.168Z,41.32
2023-02-14T14:24:59.561Z,40.45
2023-02-14T14:26:02.471Z,40.70
2023-02-14T14:27:20.976Z,39.42
2023-02-14T14:28:26.532Z,41.17
2023-02-14T14:29:31.797Z,41.15
2023-02-14T14:30:34.487Z,40.13
2023-02-14T14:31:41.035Z,40.27
2023-02-14T14:32:45.889Z,39.18
2023-02-14T14:33:57.865Z,39.73
2023-02-14T14:35:04.929Z,39.57
2023-02-14T14:36:13.515Z,39.20
2023-02-14T14:37:19.486Z,40.90
2023-02-14T14:38:53.928Z,39.23
2023-02-14T14:40:02.453Z,39.97
2023-02-14T14:41:04.949Z,41.10
2023-02-14T14:42:18.200Z,39.40
2023-02-14T14:43:33.797Z,39.47
2023-02-14T14:44:38.082Z,39.15
2023-02-14T14:45:43.805Z,39.67
2023-02-14T14:46:46.884Z,40.55
2023-02-14T14:47:54.112Z,38.02
2023-02-14T14:48:57.518Z,38.08
2023-02-14T14:50:07.518Z,40.02
2023-02-14T14:51:21.958Z,39.57
2023-02-14T14:52:37.565Z,40.38
2023-02-14T14:53:47.185Z,39.02
2023-02-14T14:54:49.555Z,39.12
2023-02-14T14:55:52.290Z,37.80
2023-02-14T14:57:01.770Z,40.12
2023-02-14T14:58:09.318Z,40.65
2023-02-14T14:59:29.039Z,40.35
2023-02-14T15:00:34.584Z,39.37
2023-02-14T15:01:39.008Z,41.02
2023-02-14T15:02:41.351Z,40.77
2023-02-14T15:03:43.815Z,40.15
2023-02-14T15:04:46.193Z,39.55
2023-02-14T15:05:50.414Z,40.37
2023-02-14T15:06:52.875Z,40.43
2023-02-14T15:07:55.414Z,41.82
2023-02-14T15:08:57.834Z,40.93
2023-02-14T15:10:00.655Z,40.90
2023-02-14T15:11:11.081Z,40.43
2023-02-14T15:12:38.551Z,40.33
2023-02-14T15:13:53.535Z,39.85
2023-02-14T15:14:58.057Z,38.27
2023-02-14T15:16:03.480Z,39.05
2023-02-14T15:17:18.635Z,38.43
2023-02-14T15:18:21.707Z,38.73
2023-02-14T15:19:33.439Z,38.07
2023-02-14T15:20:36.994Z,36.95
2023-02-14T15:21:44.471Z,38.98
2023-02-14T15:22:49.897Z,40.30
2023-02-14T15:23:52.866Z,41.53
2023-02-14T15:24:55.756Z,41.95
2023-02-14T15:25:58.225Z,39.88
2023-02-14T15:27:02.109Z,39.05
2023-02-14T15:28:04.820Z,39.42
2023-02-14T15:29:07.597Z,39.10
2023-02-14T15:30:19.456Z,39.93
2023-02-14T15:31:22.255Z,39.60
2023-02-14T15:32:26.732Z,40.02
2023-02-14T15:33:31.563Z,38.00
2023-02-14T15:34:36.438Z,40.27
2023-02-14T15:35:42.399Z,41.57
2023-02-14T15:36:49.173Z,40.88
2023-02-14T15:37:52.399Z,38.68
2023-02-14T15:38:56.882Z,38.98
2023-02-14T15:39:59.925Z,38.43
2023-02-14T15:41:03.124Z,38.55
2023-02-14T15:42:06.375Z,38.47
2023-02-14T15:43:29.708Z,38.40
2023-02-14T15:44:32.636Z,38.18
2023-02-14T15:45:35.081Z,37.85
2023-02-14T15:46:39.551Z,37.07
2023-02-14T15:47:44.792Z,36.18
2023-02-14T15:48:48.020Z,33.92
2023-02-14T15:49:50.476Z,34.37
2023-02-14T15:50:56.597Z,34.92
2023-02-14T15:52:02.880Z,34.33
2023-02-14T15:53:17.424Z,34.23
2023-02-14T15:54:26.022Z,35.60
2023-02-14T15:55:28.945Z,34.73
2023-02-14T15:56:43.268Z,32.28
2023-02-14T15:57:55.379Z,32.27
2023-02-14T15:59:00.812Z,33.27
2023-02-14T16:00:11.663Z,33.85
2023-02-14T16:01:14.244Z,33.93
2023-02-14T16:02:17.327Z,33.12
2023-02-14T16:03:22.776Z,33.18
2023-02-14T16:04:31.372Z,35.00
2023-02-14T16:05:34.179Z,36.25
2023-02-14T16:06:44.781Z,34.98
2023-02-14T16:08:03.640Z,34.43
2023-02-14T16:09:26.198Z,34.82
2023-02-14T16:10:31.103Z,35.15
2023-02-14T16:11:38.151Z,34.85
2023-02-14T16:12:42.333Z,34.80
2023-02-14T16:13:46.579Z,33.78
2023-02-14T16:15:20.603Z,31.78
2023-02-14T16:16:23.100Z,33.13
2023-02-14T16:17:34.657Z,33.02
2023-02-14T16:18:45.971Z,31.62
2023-02-14T16:19:48.434Z,33.23
2023-02-14T16:20:51.432Z,35.75
2023-02-14T16:21:57.359Z,37.63
2023-02-14T16:23:22.227Z,42.12
2023-02-14T16:24:24.587Z,48.85
2023-02-14T16:25:26.962Z,45.78
2023-02-14T16:26:30.804Z,44.13
2023-02-14T16:27:33.648Z,41.50
2023-02-14T16:28:38.948Z,41.58
2023-02-14T16:29:41.632Z,38.72
2023-02-14T16:30:46.074Z,38.15
2023-02-14T16:32:16.510Z,39.78
2023-02-14T16:33:22.554Z,33.85
2023-02-14T16:34:26.563Z,33.57
2023-02-14T16:35:29.622Z,31.35
2023-02-14T16:36:33.688Z,32.68
2023-02-14T16:37:36.079Z,32.00
2023-02-14T16:38:44.196Z,32.52
2023-02-14T16:39:47.748Z,32.43
2023-02-14T16:40:52.439Z,32.03
2023-02-14T16:41:56.569Z,31.77
2023-02-14T16:42:59.909Z,31.70
2023-02-14T16:44:02.779Z,31.05
2023-02-14T16:45:05.360Z,31.07
2023-02-14T16:46:12.365Z,31.62
2023-02-14T16:47:17.325Z,34.92
2023-02-14T16:48:19.760Z,32.75
2023-02-14T16:49:23.729Z,32.28
2023-02-14T16:50:26.242Z,32.65
2023-02-14T16:51:33.677Z,33.98
2023-02-14T16:52:36.372Z,32.10
2023-02-14T16:53:38.794Z,30.48
2023-02-14T16:54:41.353Z,32.13
2023-02-14T16:55:43.761Z,31.60
2023-02-14T16:56:52.811Z,32.62
2023-02-14T16:57:55.278Z,33.50
2023-02-14T16:58:58.258Z,34.65
2023-02-14T17:00:00.682Z,33.80
2023-02-14T17:01:03.561Z,35.33
2023-02-14T17:02:06.416Z,33.63
2023-02-14T17:03:11.561Z,34.92
2023-02-14T17:04:14.009Z,36.53
2023-02-14T17:05:16.542Z,37.28
2023-02-14T17:06:24.338Z,34.98
2023-02-14T17:07:29.834Z,34.50
2023-02-14T17:08:32.334Z,34.48
2023-02-14T17:09:40.033Z,34.22